sensor_id;sensor_type;location;lat;lon;timestamp;temperature;humidity
72114;SHT31;59989;46.220;19.888;2024-01-15T00:00:48;0.11;92.86
72114;SHT31;59989;46.220;19.888;2024-01-15T00:03:51;0.07;92.59
72114;SHT31;59989;46.220;19.888;2024-01-15T00:06:54;-0.05;92.70
72114;SHT31;59989;46.220;19.888;2024-01-15T00:09:56;-0.25;92.78
72114;SHT31;59989;46.220;19.888;2024-01-15T00:12:59;-0.36;93.03
72114;SHT31;59989;46.220;19.888;2024-01-15T00:16:01;-0.45;93.15
72114;SHT31;59989;46.220;19.888;2024-01-15T00:19:04;-0.59;93.34
72114;SHT31;59989;46.220;19.888;2024-01-15T00:22:07;-0.62;93.63
72114;SHT31;59989;46.220;19.888;2024-01-15T00:25:09;-0.70;93.83
72114;SHT31;59989;46.220;19.888;2024-01-15T00:28:11;-0.80;93.65
72114;SHT31;59989;46.220;19.888;2024-01-15T00:31:16;-0.83;93.88
72114;SHT31;59989;46.220;19.888;2024-01-15T00:34:19;-0.91;93.84
72114;SHT31;59989;46.220;19.888;2024-01-15T00:37:22;-1.00;94.12
72114;SHT31;59989;46.220;19.888;2024-01-15T00:40:24;-1.00;93.99
72114;SHT31;59989;46.220;19.888;2024-01-15T00:43:28;-1.10;94.18
72114;SHT31;59989;46.220;19.888;2024-01-15T00:46:31;-1.04;94.32
72114;SHT31;59989;46.220;19.888;2024-01-15T00:49:33;-1.04;94.23
72114;SHT31;59989;46.220;19.888;2024-01-15T00:52:36;-1.05;94.23
72114;SHT31;59989;46.220;19.888;2024-01-15T00:55:38;-1.05;93.84
72114;SHT31;59989;46.220;19.888;2024-01-15T00:58:41;-1.08;94.05
72114;SHT31;59989;46.220;19.888;2024-01-15T01:01:43;-1.11;93.81
72114;SHT31;59989;46.220;19.888;2024-01-15T01:04:48;-1.18;93.94
72114;SHT31;59989;46.220;19.888;2024-01-15T01:07:50;-1.17;93.96
72114;SHT31;59989;46.220;19.888;2024-01-15T01:10:53;-1.20;93.53
72114;SHT31;59989;46.220;19.888;2024-01-15T01:13:55;-1.20;93.60
72114;SHT31;59989;46.220;19.888;2024-01-15T01:16:59;-1.21;93.27
72114;SHT31;59989;46.220;19.888;2024-01-15T01:20:01;-1.27;92.91
72114;SHT31;59989;46.220;19.888;2024-01-15T01:23:07;-1.27;93.00
72114;SHT31;59989;46.220;19.888;2024-01-15T01:26:09;-1.10;92.77
72114;SHT31;59989;46.220;19.888;2024-01-15T01:29:12;-1.08;92.67
72114;SHT31;59989;46.220;19.888;2024-01-15T01:32:14;-0.82;92.05
72114;SHT31;59989;46.220;19.888;2024-01-15T01:35:17;-0.66;91.56
72114;SHT31;59989;46.220;19.888;2024-01-15T01:38:19;-0.70;91.28
72114;SHT31;59989;46.220;19.888;2024-01-15T01:41:22;-0.70;91.31
72114;SHT31;59989;46.220;19.888;2024-01-15T01:44:26;-0.76;91.45
72114;SHT31;59989;46.220;19.888;2024-01-15T01:47:28;-0.84;92.03
72114;SHT31;59989;46.220;19.888;2024-01-15T01:50:31;-0.83;91.97
72114;SHT31;59989;46.220;19.888;2024-01-15T01:53:34;-0.93;92.08
72114;SHT31;59989;46.220;19.888;2024-01-15T01:56:39;-0.83;92.16
72114;SHT31;59989;46.220;19.888;2024-01-15T01:59:42;-0.80;92.10
72114;SHT31;59989;46.220;19.888;2024-01-15T02:02:45;-0.84;92.20
72114;SHT31;59989;46.220;19.888;2024-01-15T02:05:48;-0.90;92.18
72114;SHT31;59989;46.220;19.888;2024-01-15T02:08:52;-0.90;92.22
72114;SHT31;59989;46.220;19.888;2024-01-15T02:11:54;-0.82;92.27
72114;SHT31;59989;46.220;19.888;2024-01-15T02:14:57;-0.87;92.21
72114;SHT31;59989;46.220;19.888;2024-01-15T02:18:01;-0.82;92.23
72114;SHT31;59989;46.220;19.888;2024-01-15T02:21:05;-0.82;92.31
72114;SHT31;59989;46.220;19.888;2024-01-15T02:24:07;-0.83;92.30
72114;SHT31;59989;46.220;19.888;2024-01-15T02:27:10;-0.76;92.13
72114;SHT31;59989;46.220;19.888;2024-01-15T02:30:13;-0.76;92.49
72114;SHT31;59989;46.220;19.888;2024-01-15T02:33:15;-0.69;92.43
72114;SHT31;59989;46.220;19.888;2024-01-15T02:36:18;-0.62;92.57
72114;SHT31;59989;46.220;19.888;2024-01-15T02:39:21;-0.51;92.15
72114;SHT31;59989;46.220;19.888;2024-01-15T02:42:23;-0.43;92.06
72114;SHT31;59989;46.220;19.888;2024-01-15T02:45:28;-0.19;91.82
72114;SHT31;59989;46.220;19.888;2024-01-15T02:48:31;-0.07;91.44
72114;SHT31;59989;46.220;19.888;2024-01-15T02:51:34;0.05;91.19
72114;SHT31;59989;46.220;19.888;2024-01-15T02:54:36;0.28;90.61
72114;SHT31;59989;46.220;19.888;2024-01-15T02:57:39;0.34;90.68
72114;SHT31;59989;46.220;19.888;2024-01-15T03:00:41;0.48;90.38
72114;SHT31;59989;46.220;19.888;2024-01-15T03:03:45;0.58;90.15
72114;SHT31;59989;46.220;19.888;2024-01-15T03:06:47;0.74;89.80
72114;SHT31;59989;46.220;19.888;2024-01-15T03:09:50;0.72;90.01
72114;SHT31;59989;46.220;19.888;2024-01-15T03:12:52;0.82;89.99
72114;SHT31;59989;46.220;19.888;2024-01-15T03:15:55;0.86;90.05
72114;SHT31;59989;46.220;19.888;2024-01-15T03:18:58;0.78;90.32
72114;SHT31;59989;46.220;19.888;2024-01-15T03:22:00;0.79;90.59
72114;SHT31;59989;46.220;19.888;2024-01-15T03:25:05;0.76;90.74
72114;SHT31;59989;46.220;19.888;2024-01-15T03:28:08;1.05;90.94
72114;SHT31;59989;46.220;19.888;2024-01-15T03:31:11;1.07;90.77
72114;SHT31;59989;46.220;19.888;2024-01-15T03:34:13;1.23;90.59
72114;SHT31;59989;46.220;19.888;2024-01-15T03:37:16;1.33;90.19
72114;SHT31;59989;46.220;19.888;2024-01-15T03:40:19;1.33;90.25
72114;SHT31;59989;46.220;19.888;2024-01-15T03:43:25;1.42;90.22
72114;SHT31;59989;46.220;19.888;2024-01-15T03:46:28;1.50;89.96
72114;SHT31;59989;46.220;19.888;2024-01-15T03:49:30;1.63;89.79
72114;SHT31;59989;46.220;19.888;2024-01-15T03:52:33;1.72;90.03
72114;SHT31;59989;46.220;19.888;2024-01-15T03:55:35;1.74;90.28
72114;SHT31;59989;46.220;19.888;2024-01-15T03:58:38;1.78;90.40
72114;SHT31;59989;46.220;19.888;2024-01-15T04:01:40;1.79;90.50
72114;SHT31;59989;46.220;19.888;2024-01-15T04:04:43;1.81;90.50
72114;SHT31;59989;46.220;19.888;2024-01-15T04:07:46;1.81;90.50
72114;SHT31;59989;46.220;19.888;2024-01-15T04:10:48;1.86;90.13
72114;SHT31;59989;46.220;19.888;2024-01-15T04:13:51;1.86;90.02
72114;SHT31;59989;46.220;19.888;2024-01-15T04:16:54;1.91;90.13
72114;SHT31;59989;46.220;19.888;2024-01-15T04:19:56;1.86;90.31
72114;SHT31;59989;46.220;19.888;2024-01-15T04:22:59;1.92;90.15
72114;SHT31;59989;46.220;19.888;2024-01-15T04:26:01;1.99;89.94
72114;SHT31;59989;46.220;19.888;2024-01-15T04:29:04;2.09;89.62
72114;SHT31;59989;46.220;19.888;2024-01-15T04:32:06;2.12;89.36
72114;SHT31;59989;46.220;19.888;2024-01-15T04:35:08;2.22;89.19
72114;SHT31;59989;46.220;19.888;2024-01-15T04:38:11;2.23;89.19
72114;SHT31;59989;46.220;19.888;2024-01-15T04:41:14;2.32;89.38
72114;SHT31;59989;46.220;19.888;2024-01-15T04:44:18;2.41;89.10
72114;SHT31;59989;46.220;19.888;2024-01-15T04:47:21;2.44;89.17
72114;SHT31;59989;46.220;19.888;2024-01-15T04:50:23;2.40;89.45
72114;SHT31;59989;46.220;19.888;2024-01-15T04:53:26;2.44;89.31
72114;SHT31;59989;46.220;19.888;2024-01-15T04:56:28;2.64;88.53
72114;SHT31;59989;46.220;19.888;2024-01-15T04:59:31;2.65;88.37
72114;SHT31;59989;46.220;19.888;2024-01-15T05:02:33;2.76;88.26
72114;SHT31;59989;46.220;19.888;2024-01-15T05:05:36;2.71;88.27
72114;SHT31;59989;46.220;19.888;2024-01-15T05:08:39;2.70;88.46
72114;SHT31;59989;46.220;19.888;2024-01-15T05:11:41;2.70;88.32
72114;SHT31;59989;46.220;19.888;2024-01-15T05:14:44;2.73;88.18
72114;SHT31;59989;46.220;19.888;2024-01-15T05:17:46;2.68;88.44
72114;SHT31;59989;46.220;19.888;2024-01-15T05:20:49;2.71;88.44
72114;SHT31;59989;46.220;19.888;2024-01-15T05:23:52;2.64;88.76
72114;SHT31;59989;46.220;19.888;2024-01-15T05:26:54;2.65;88.78
72114;SHT31;59989;46.220;19.888;2024-01-15T05:29:56;2.64;88.80
72114;SHT31;59989;46.220;19.888;2024-01-15T05:32:59;2.61;88.88
72114;SHT31;59989;46.220;19.888;2024-01-15T05:36:03;2.64;88.81
72114;SHT31;59989;46.220;19.888;2024-01-15T05:39:05;2.58;88.90
72114;SHT31;59989;46.220;19.888;2024-01-15T05:42:08;2.54;89.11
72114;SHT31;59989;46.220;19.888;2024-01-15T05:45:11;2.58;88.82
72114;SHT31;59989;46.220;19.888;2024-01-15T05:48:14;2.57;89.08
72114;SHT31;59989;46.220;19.888;2024-01-15T05:51:16;2.54;89.13
72114;SHT31;59989;46.220;19.888;2024-01-15T05:54:20;2.57;89.25
72114;SHT31;59989;46.220;19.888;2024-01-15T05:57:22;2.57;89.12
72114;SHT31;59989;46.220;19.888;2024-01-15T06:00:25;2.60;89.07
72114;SHT31;59989;46.220;19.888;2024-01-15T06:03:27;2.54;89.20
72114;SHT31;59989;46.220;19.888;2024-01-15T06:06:30;2.64;89.04
72114;SHT31;59989;46.220;19.888;2024-01-15T06:09:32;2.62;89.00
72114;SHT31;59989;46.220;19.888;2024-01-15T06:12:35;2.65;89.00
72114;SHT31;59989;46.220;19.888;2024-01-15T06:15:37;2.64;88.88
72114;SHT31;59989;46.220;19.888;2024-01-15T06:18:40;2.64;88.83
72114;SHT31;59989;46.220;19.888;2024-01-15T06:21:43;2.58;88.86
72114;SHT31;59989;46.220;19.888;2024-01-15T06:24:46;2.62;88.91
72114;SHT31;59989;46.220;19.888;2024-01-15T06:27:49;2.61;88.94
72114;SHT31;59989;46.220;19.888;2024-01-15T06:30:54;2.62;89.16
72114;SHT31;59989;46.220;19.888;2024-01-15T06:33:58;2.65;88.88
72114;SHT31;59989;46.220;19.888;2024-01-15T06:37:01;2.60;89.03
72114;SHT31;59989;46.220;19.888;2024-01-15T06:40:04;2.61;89.19
72114;SHT31;59989;46.220;19.888;2024-01-15T06:43:08;2.70;88.69
72114;SHT31;59989;46.220;19.888;2024-01-15T06:46:11;2.80;88.55
72114;SHT31;59989;46.220;19.888;2024-01-15T06:49:13;2.77;88.62
72114;SHT31;59989;46.220;19.888;2024-01-15T06:52:16;2.81;88.54
72114;SHT31;59989;46.220;19.888;2024-01-15T06:55:18;2.84;88.34
72114;SHT31;59989;46.220;19.888;2024-01-15T06:58:22;2.85;88.33
72114;SHT31;59989;46.220;19.888;2024-01-15T07:01:25;2.88;88.20
72114;SHT31;59989;46.220;19.888;2024-01-15T07:04:28;2.98;88.10
72114;SHT31;59989;46.220;19.888;2024-01-15T07:07:31;2.98;87.90
72114;SHT31;59989;46.220;19.888;2024-01-15T07:10:33;2.99;87.86
72114;SHT31;59989;46.220;19.888;2024-01-15T07:13:38;3.01;88.19
72114;SHT31;59989;46.220;19.888;2024-01-15T07:16:41;3.02;89.51
72114;SHT31;59989;46.220;19.888;2024-01-15T07:19:49;3.01;90.48
72114;SHT31;59989;46.220;19.888;2024-01-15T07:22:51;2.95;91.04
72114;SHT31;59989;46.220;19.888;2024-01-15T07:25:54;2.94;91.26
72114;SHT31;59989;46.220;19.888;2024-01-15T07:28:56;2.92;91.45
72114;SHT31;59989;46.220;19.888;2024-01-15T07:31:59;2.97;91.31
72114;SHT31;59989;46.220;19.888;2024-01-15T07:35:02;2.92;91.60
72114;SHT31;59989;46.220;19.888;2024-01-15T07:38:05;2.91;91.89
72114;SHT31;59989;46.220;19.888;2024-01-15T07:41:07;2.91;92.05
72114;SHT31;59989;46.220;19.888;2024-01-15T07:44:10;2.87;92.83
72114;SHT31;59989;46.220;19.888;2024-01-15T07:47:13;2.91;92.77
72114;SHT31;59989;46.220;19.888;2024-01-15T07:50:15;2.85;93.38
72114;SHT31;59989;46.220;19.888;2024-01-15T07:53:18;2.94;93.57
72114;SHT31;59989;46.220;19.888;2024-01-15T07:56:20;2.95;93.37
72114;SHT31;59989;46.220;19.888;2024-01-15T07:59:24;3.04;93.23
72114;SHT31;59989;46.220;19.888;2024-01-15T08:02:26;3.09;93.07
72114;SHT31;59989;46.220;19.888;2024-01-15T08:05:29;3.11;93.23
72114;SHT31;59989;46.220;19.888;2024-01-15T08:08:31;2.98;93.16
72114;SHT31;59989;46.220;19.888;2024-01-15T08:11:35;2.94;93.51
72114;SHT31;59989;46.220;19.888;2024-01-15T08:14:37;2.92;93.67
72114;SHT31;59989;46.220;19.888;2024-01-15T08:17:40;2.97;93.83
72114;SHT31;59989;46.220;19.888;2024-01-15T08:20:43;3.08;93.90
72114;SHT31;59989;46.220;19.888;2024-01-15T08:23:45;3.12;94.04
72114;SHT31;59989;46.220;19.888;2024-01-15T08:26:48;3.16;94.26
72114;SHT31;59989;46.220;19.888;2024-01-15T08:29:50;3.23;94.36
72114;SHT31;59989;46.220;19.888;2024-01-15T08:32:55;3.33;93.98
72114;SHT31;59989;46.220;19.888;2024-01-15T08:36:01;3.50;94.15
72114;SHT31;59989;46.220;19.888;2024-01-15T08:39:03;3.59;93.69
72114;SHT31;59989;46.220;19.888;2024-01-15T08:42:06;3.56;93.44
72114;SHT31;59989;46.220;19.888;2024-01-15T08:45:09;3.67;93.32
72114;SHT31;59989;46.220;19.888;2024-01-15T08:48:12;3.80;93.13
72114;SHT31;59989;46.220;19.888;2024-01-15T08:51:14;3.83;93.30
72114;SHT31;59989;46.220;19.888;2024-01-15T08:54:17;3.78;93.02
72114;SHT31;59989;46.220;19.888;2024-01-15T08:57:20;3.76;92.97
72114;SHT31;59989;46.220;19.888;2024-01-15T09:00:24;3.74;92.91
72114;SHT31;59989;46.220;19.888;2024-01-15T09:03:26;3.59;93.33
72114;SHT31;59989;46.220;19.888;2024-01-15T09:06:30;3.57;93.42
72114;SHT31;59989;46.220;19.888;2024-01-15T09:09:32;3.63;93.64
72114;SHT31;59989;46.220;19.888;2024-01-15T09:12:35;3.46;93.93
72114;SHT31;59989;46.220;19.888;2024-01-15T09:15:37;3.33;94.26
72114;SHT31;59989;46.220;19.888;2024-01-15T09:18:40;3.22;94.75
72114;SHT31;59989;46.220;19.888;2024-01-15T09:21:43;3.18;95.17
72114;SHT31;59989;46.220;19.888;2024-01-15T09:24:45;3.13;95.42
72114;SHT31;59989;46.220;19.888;2024-01-15T09:27:48;3.16;95.82
72114;SHT31;59989;46.220;19.888;2024-01-15T09:30:51;3.11;96.02
72114;SHT31;59989;46.220;19.888;2024-01-15T09:33:53;3.07;96.05
72114;SHT31;59989;46.220;19.888;2024-01-15T09:36:58;3.05;96.22
72114;SHT31;59989;46.220;19.888;2024-01-15T09:40:02;3.02;96.45
72114;SHT31;59989;46.220;19.888;2024-01-15T09:43:06;3.05;96.61
72114;SHT31;59989;46.220;19.888;2024-01-15T09:46:08;3.07;96.52
72114;SHT31;59989;46.220;19.888;2024-01-15T09:49:12;3.01;96.78
72114;SHT31;59989;46.220;19.888;2024-01-15T09:52:15;2.99;96.94
72114;SHT31;59989;46.220;19.888;2024-01-15T09:55:19;2.98;96.92
72114;SHT31;59989;46.220;19.888;2024-01-15T09:58:22;2.98;96.97
72114;SHT31;59989;46.220;19.888;2024-01-15T10:01:25;2.92;97.17
72114;SHT31;59989;46.220;19.888;2024-01-15T10:04:29;2.83;97.01
72114;SHT31;59989;46.220;19.888;2024-01-15T10:07:35;2.84;96.89
72114;SHT31;59989;46.220;19.888;2024-01-15T10:10:38;2.77;96.63
72114;SHT31;59989;46.220;19.888;2024-01-15T10:13:41;2.70;96.50
72114;SHT31;59989;46.220;19.888;2024-01-15T10:16:47;2.68;96.59
72114;SHT31;59989;46.220;19.888;2024-01-15T10:19:49;2.57;96.37
72114;SHT31;59989;46.220;19.888;2024-01-15T10:22:52;2.60;96.16
72114;SHT31;59989;46.220;19.888;2024-01-15T10:25:56;2.60;95.84
72114;SHT31;59989;46.220;19.888;2024-01-15T10:28:59;2.58;95.63
72114;SHT31;59989;46.220;19.888;2024-01-15T10:32:06;2.58;95.28
72114;SHT31;59989;46.220;19.888;2024-01-15T10:35:08;2.61;95.33
72114;SHT31;59989;46.220;19.888;2024-01-15T10:38:11;2.61;95.46
72114;SHT31;59989;46.220;19.888;2024-01-15T10:41:14;2.76;95.48
72114;SHT31;59989;46.220;19.888;2024-01-15T10:44:17;2.80;94.99
72114;SHT31;59989;46.220;19.888;2024-01-15T10:47:20;2.78;94.83
72114;SHT31;59989;46.220;19.888;2024-01-15T10:50:23;2.80;94.90
72114;SHT31;59989;46.220;19.888;2024-01-15T10:53:26;2.81;94.67
72114;SHT31;59989;46.220;19.888;2024-01-15T10:56:31;2.81;94.81
72114;SHT31;59989;46.220;19.888;2024-01-15T10:59:36;2.83;94.50
72114;SHT31;59989;46.220;19.888;2024-01-15T11:02:38;2.94;95.02
72114;SHT31;59989;46.220;19.888;2024-01-15T11:05:44;2.99;95.08
72114;SHT31;59989;46.220;19.888;2024-01-15T11:08:50;3.09;95.12
72114;SHT31;59989;46.220;19.888;2024-01-15T11:12:10;3.05;94.91
72114;SHT31;59989;46.220;19.888;2024-01-15T11:15:19;3.08;95.45
72114;SHT31;59989;46.220;19.888;2024-01-15T11:18:23;2.99;94.75
72114;SHT31;59989;46.220;19.888;2024-01-15T11:21:26;3.12;94.89
72114;SHT31;59989;46.220;19.888;2024-01-15T11:24:39;3.39;94.98
72114;SHT31;59989;46.220;19.888;2024-01-15T11:27:47;3.18;94.17
72114;SHT31;59989;46.220;19.888;2024-01-15T11:30:50;3.19;94.23
72114;SHT31;59989;46.220;19.888;2024-01-15T11:33:53;3.18;94.47
72114;SHT31;59989;46.220;19.888;2024-01-15T11:40:02;3.52;95.00
72114;SHT31;59989;46.220;19.888;2024-01-15T11:43:12;3.47;94.30
72114;SHT31;59989;46.220;19.888;2024-01-15T11:46:17;3.39;94.04
72114;SHT31;59989;46.220;19.888;2024-01-15T11:52:59;3.22;93.98
72114;SHT31;59989;46.220;19.888;2024-01-15T11:56:15;3.36;94.08
72114;SHT31;59989;46.220;19.888;2024-01-15T11:59:18;3.28;94.14
72114;SHT31;59989;46.220;19.888;2024-01-15T12:02:22;3.30;94.01
72114;SHT31;59989;46.220;19.888;2024-01-15T12:05:24;3.55;93.97
72114;SHT31;59989;46.220;19.888;2024-01-15T12:08:27;3.70;93.83
72114;SHT31;59989;46.220;19.888;2024-01-15T12:11:30;3.70;93.76
72114;SHT31;59989;46.220;19.888;2024-01-15T12:14:34;3.93;93.63
72114;SHT31;59989;46.220;19.888;2024-01-15T12:17:38;3.94;93.71
72114;SHT31;59989;46.220;19.888;2024-01-15T12:20:41;4.09;93.57
72114;SHT31;59989;46.220;19.888;2024-01-15T12:23:50;4.05;93.40
72114;SHT31;59989;46.220;19.888;2024-01-15T12:26:54;4.28;93.20
72114;SHT31;59989;46.220;19.888;2024-01-15T12:29:58;4.52;92.64
72114;SHT31;59989;46.220;19.888;2024-01-15T12:33:04;4.44;91.62
72114;SHT31;59989;46.220;19.888;2024-01-15T12:36:07;4.02;92.14
72114;SHT31;59989;46.220;19.888;2024-01-15T12:39:12;4.21;92.15
72114;SHT31;59989;46.220;19.888;2024-01-15T12:42:16;4.14;92.28
72114;SHT31;59989;46.220;19.888;2024-01-15T12:45:19;4.05;92.48
72114;SHT31;59989;46.220;19.888;2024-01-15T12:48:22;3.88;91.78
72114;SHT31;59989;46.220;19.888;2024-01-15T12:51:25;3.87;92.59
72114;SHT31;59989;46.220;19.888;2024-01-15T12:54:29;3.84;93.40
72114;SHT31;59989;46.220;19.888;2024-01-15T12:57:33;3.71;93.29
72114;SHT31;59989;46.220;19.888;2024-01-15T13:00:36;3.57;93.59
72114;SHT31;59989;46.220;19.888;2024-01-15T13:03:39;3.52;93.79
72114;SHT31;59989;46.220;19.888;2024-01-15T13:06:44;3.44;94.34
72114;SHT31;59989;46.220;19.888;2024-01-15T13:09:47;3.52;94.10
72114;SHT31;59989;46.220;19.888;2024-01-15T13:12:49;3.59;94.08
72114;SHT31;59989;46.220;19.888;2024-01-15T13:15:53;3.59;94.14
72114;SHT31;59989;46.220;19.888;2024-01-15T13:18:55;3.39;94.16
72114;SHT31;59989;46.220;19.888;2024-01-15T13:22:01;3.42;94.46
72114;SHT31;59989;46.220;19.888;2024-01-15T13:25:06;3.26;94.74
72114;SHT31;59989;46.220;19.888;2024-01-15T13:28:10;3.18;95.08
72114;SHT31;59989;46.220;19.888;2024-01-15T13:31:13;3.16;94.76
72114;SHT31;59989;46.220;19.888;2024-01-15T13:34:15;3.15;94.34
72114;SHT31;59989;46.220;19.888;2024-01-15T13:37:18;3.23;94.35
72114;SHT31;59989;46.220;19.888;2024-01-15T13:40:20;3.26;94.42
72114;SHT31;59989;46.220;19.888;2024-01-15T13:43:23;3.33;94.36
72114;SHT31;59989;46.220;19.888;2024-01-15T13:46:26;3.36;94.28
72114;SHT31;59989;46.220;19.888;2024-01-15T13:49:36;3.36;94.39
72114;SHT31;59989;46.220;19.888;2024-01-15T13:52:41;3.11;94.66
72114;SHT31;59989;46.220;19.888;2024-01-15T13:55:44;2.99;95.21
72114;SHT31;59989;46.220;19.888;2024-01-15T13:58:47;2.97;95.24
72114;SHT31;59989;46.220;19.888;2024-01-15T14:01:50;2.92;95.34
72114;SHT31;59989;46.220;19.888;2024-01-15T14:04:53;2.97;95.19
72114;SHT31;59989;46.220;19.888;2024-01-15T14:07:56;2.97;95.06
72114;SHT31;59989;46.220;19.888;2024-01-15T14:10:59;2.90;95.30
72114;SHT31;59989;46.220;19.888;2024-01-15T14:14:02;2.91;95.43
72114;SHT31;59989;46.220;19.888;2024-01-15T14:17:05;2.87;95.55
72114;SHT31;59989;46.220;19.888;2024-01-15T14:20:08;2.83;95.89
72114;SHT31;59989;46.220;19.888;2024-01-15T14:23:13;2.81;95.90
72114;SHT31;59989;46.220;19.888;2024-01-15T14:26:16;2.80;95.81
72114;SHT31;59989;46.220;19.888;2024-01-15T14:29:19;2.91;95.64
72114;SHT31;59989;46.220;19.888;2024-01-15T14:32:23;2.88;95.53
72114;SHT31;59989;46.220;19.888;2024-01-15T14:35:26;2.80;95.83
72114;SHT31;59989;46.220;19.888;2024-01-15T14:38:28;2.71;96.36
72114;SHT31;59989;46.220;19.888;2024-01-15T14:41:31;2.71;96.11
72114;SHT31;59989;46.220;19.888;2024-01-15T14:44:33;2.67;95.91
72114;SHT31;59989;46.220;19.888;2024-01-15T14:47:38;2.71;95.63
72114;SHT31;59989;46.220;19.888;2024-01-15T14:50:41;2.68;95.55
72114;SHT31;59989;46.220;19.888;2024-01-15T14:53:43;2.65;95.60
72114;SHT31;59989;46.220;19.888;2024-01-15T14:56:46;2.67;95.54
72114;SHT31;59989;46.220;19.888;2024-01-15T14:59:48;2.65;95.62
72114;SHT31;59989;46.220;19.888;2024-01-15T15:02:51;2.60;95.75
72114;SHT31;59989;46.220;19.888;2024-01-15T15:05:53;2.65;95.69
72114;SHT31;59989;46.220;19.888;2024-01-15T15:08:56;2.61;95.79
72114;SHT31;59989;46.220;19.888;2024-01-15T15:12:03;2.57;95.77
72114;SHT31;59989;46.220;19.888;2024-01-15T15:15:07;2.49;96.11
72114;SHT31;59989;46.220;19.888;2024-01-15T15:18:14;2.43;96.39
72114;SHT31;59989;46.220;19.888;2024-01-15T15:21:17;2.40;96.38
72114;SHT31;59989;46.220;19.888;2024-01-15T15:24:20;2.40;96.26
72114;SHT31;59989;46.220;19.888;2024-01-15T15:27:22;2.43;96.09
72114;SHT31;59989;46.220;19.888;2024-01-15T15:30:25;2.39;95.59
72114;SHT31;59989;46.220;19.888;2024-01-15T15:33:28;2.32;95.63
72114;SHT31;59989;46.220;19.888;2024-01-15T15:36:31;2.33;94.92
72114;SHT31;59989;46.220;19.888;2024-01-15T15:39:33;2.36;94.95
72114;SHT31;59989;46.220;19.888;2024-01-15T15:42:36;2.34;95.14
72114;SHT31;59989;46.220;19.888;2024-01-15T15:45:39;2.32;95.03
72114;SHT31;59989;46.220;19.888;2024-01-15T15:48:42;2.32;95.24
72114;SHT31;59989;46.220;19.888;2024-01-15T15:51:45;2.25;94.83
72114;SHT31;59989;46.220;19.888;2024-01-15T15:54:47;2.18;94.99
72114;SHT31;59989;46.220;19.888;2024-01-15T15:57:50;2.16;94.78
72114;SHT31;59989;46.220;19.888;2024-01-15T16:00:53;2.26;89.54
72114;SHT31;59989;46.220;19.888;2024-01-15T16:03:56;2.34;90.54
72114;SHT31;59989;46.220;19.888;2024-01-15T16:06:59;2.28;92.27
72114;SHT31;59989;46.220;19.888;2024-01-15T16:10:01;2.19;92.44
72114;SHT31;59989;46.220;19.888;2024-01-15T16:13:04;2.23;89.59
72114;SHT31;59989;46.220;19.888;2024-01-15T16:16:06;2.30;87.92
72114;SHT31;59989;46.220;19.888;2024-01-15T16:19:29;2.32;88.69
72114;SHT31;59989;46.220;19.888;2024-01-15T16:22:51;2.33;88.62
72114;SHT31;59989;46.220;19.888;2024-01-15T16:26:14;2.22;90.44
72114;SHT31;59989;46.220;19.888;2024-01-15T16:29:17;2.15;90.49
72114;SHT31;59989;46.220;19.888;2024-01-15T16:32:19;2.13;90.73
72114;SHT31;59989;46.220;19.888;2024-01-15T16:35:22;2.09;90.81
72114;SHT31;59989;46.220;19.888;2024-01-15T16:38:25;2.11;90.03
72114;SHT31;59989;46.220;19.888;2024-01-15T16:41:28;2.11;89.95
72114;SHT31;59989;46.220;19.888;2024-01-15T16:44:31;2.08;89.33
72114;SHT31;59989;46.220;19.888;2024-01-15T16:47:34;2.05;91.11
72114;SHT31;59989;46.220;19.888;2024-01-15T16:50:37;1.92;91.62
72114;SHT31;59989;46.220;19.888;2024-01-15T16:53:40;2.09;88.62
72114;SHT31;59989;46.220;19.888;2024-01-15T16:56:43;2.19;87.06
72114;SHT31;59989;46.220;19.888;2024-01-15T16:59:46;2.22;87.18
72114;SHT31;59989;46.220;19.888;2024-01-15T17:02:49;2.19;86.99
72114;SHT31;59989;46.220;19.888;2024-01-15T17:05:51;2.15;88.28
72114;SHT31;59989;46.220;19.888;2024-01-15T17:08:54;2.13;89.87
72114;SHT31;59989;46.220;19.888;2024-01-15T17:11:57;2.11;90.28
72114;SHT31;59989;46.220;19.888;2024-01-15T17:14:59;2.08;90.52
72114;SHT31;59989;46.220;19.888;2024-01-15T17:18:01;2.05;91.04
72114;SHT31;59989;46.220;19.888;2024-01-15T17:21:05;1.95;91.34
72114;SHT31;59989;46.220;19.888;2024-01-15T17:24:08;1.88;91.28
72114;SHT31;59989;46.220;19.888;2024-01-15T17:27:11;1.89;91.74
72114;SHT31;59989;46.220;19.888;2024-01-15T17:30:14;1.95;91.50
72114;SHT31;59989;46.220;19.888;2024-01-15T17:33:17;1.88;92.56
72114;SHT31;59989;46.220;19.888;2024-01-15T17:36:20;1.91;92.40
72114;SHT31;59989;46.220;19.888;2024-01-15T17:39:22;1.94;92.25
72114;SHT31;59989;46.220;19.888;2024-01-15T17:42:25;1.97;91.95
72114;SHT31;59989;46.220;19.888;2024-01-15T17:45:27;1.88;91.57
72114;SHT31;59989;46.220;19.888;2024-01-15T17:48:32;1.81;92.09
72114;SHT31;59989;46.220;19.888;2024-01-15T17:51:36;1.84;92.15
72114;SHT31;59989;46.220;19.888;2024-01-15T17:54:38;1.88;92.17
72114;SHT31;59989;46.220;19.888;2024-01-15T17:57:41;1.85;91.96
72114;SHT31;59989;46.220;19.888;2024-01-15T18:00:44;1.79;92.12
72114;SHT31;59989;46.220;19.888;2024-01-15T18:03:47;1.82;92.12
72114;SHT31;59989;46.220;19.888;2024-01-15T18:06:50;1.82;92.32
72114;SHT31;59989;46.220;19.888;2024-01-15T18:09:53;1.84;91.99
72114;SHT31;59989;46.220;19.888;2024-01-15T18:12:56;1.74;92.41
72114;SHT31;59989;46.220;19.888;2024-01-15T18:15:59;1.65;92.95
72114;SHT31;59989;46.220;19.888;2024-01-15T18:19:01;1.51;93.59
72114;SHT31;59989;46.220;19.888;2024-01-15T18:22:04;1.46;93.54
72114;SHT31;59989;46.220;19.888;2024-01-15T18:25:07;1.50;93.52
72114;SHT31;59989;46.220;19.888;2024-01-15T18:28:10;1.30;95.10
72114;SHT31;59989;46.220;19.888;2024-01-15T18:31:12;1.32;94.75
72114;SHT31;59989;46.220;19.888;2024-01-15T18:34:15;1.30;94.86
72114;SHT31;59989;46.220;19.888;2024-01-15T18:37:18;1.36;94.76
72114;SHT31;59989;46.220;19.888;2024-01-15T18:40:22;1.29;95.01
72114;SHT31;59989;46.220;19.888;2024-01-15T18:43:24;1.20;95.32
72114;SHT31;59989;46.220;19.888;2024-01-15T18:46:27;1.10;95.44
72114;SHT31;59989;46.220;19.888;2024-01-15T18:49:30;1.12;95.34
72114;SHT31;59989;46.220;19.888;2024-01-15T18:52:35;0.97;95.99
72114;SHT31;59989;46.220;19.888;2024-01-15T18:55:37;0.85;96.75
72114;SHT31;59989;46.220;19.888;2024-01-15T18:58:40;0.86;96.61
72114;SHT31;59989;46.220;19.888;2024-01-15T19:01:46;0.82;96.90
72114;SHT31;59989;46.220;19.888;2024-01-15T19:04:49;0.79;97.01
72114;SHT31;59989;46.220;19.888;2024-01-15T19:07:52;0.89;96.76
72114;SHT31;59989;46.220;19.888;2024-01-15T19:10:55;0.92;96.86
72114;SHT31;59989;46.220;19.888;2024-01-15T19:13:59;0.89;96.83
72114;SHT31;59989;46.220;19.888;2024-01-15T19:17:02;0.88;96.97
72114;SHT31;59989;46.220;19.888;2024-01-15T19:20:07;0.76;97.21